createdAt,value
2018-04-18T00:00:48.107Z,58.37
2018-04-18T00:03:16.906Z,61.50
2018-04-18T00:05:45.478Z,57.73
2018-04-18T00:08:14.509Z,45.67
2018-04-18T00:10:43.072Z,53.00
2018-04-18T00:13:11.404Z,46.27
2018-04-18T00:15:42.191Z,51.47
2018-04-18T00:18:11.035Z,52.40
2018-04-18T00:20:39.737Z,55.77
2018-04-18T00:23:07.849Z,55.53
2018-04-18T00:25:50.015Z,56.80
2018-04-18T00:28:17.849Z,56.27
2018-04-18T00:30:46.384Z,59.13
2018-04-18T00:33:14.671Z,59.37
2018-04-18T00:35:43.374Z,47.30
2018-04-18T00:38:11.967Z,55.87
2018-04-18T00:40:41.562Z,63.27
2018-04-18T00:43:11.137Z,51.27
2018-04-18T00:45:39.100Z,55.07
2018-04-18T00:48:10.169Z,60.10
2018-04-18T00:50:39.136Z,55.70
2018-04-18T00:53:08.085Z,56.80
2018-04-18T00:55:43.579Z,63.90
2018-04-18T00:58:11.552Z,64.07
2018-04-18T01:00:39.743Z,47.20
2018-04-18T01:03:07.659Z,50.57
2018-04-18T01:05:36.218Z,44.00
2018-04-18T01:08:05.119Z,42.87
2018-04-18T01:10:33.288Z,41.77
2018-04-18T01:13:01.915Z,46.20
2018-04-18T01:15:30.356Z,44.30
2018-04-18T01:18:00.716Z,41.27
2018-04-18T01:20:34.053Z,40.97
2018-04-18T01:29:48.969Z,50.90
2018-04-18T01:32:17.087Z,51.63
2018-04-18T01:34:45.333Z,55.17
2018-04-18T01:37:14.368Z,49.33
2018-04-18T01:39:42.334Z,50.40
2018-04-18T01:42:11.664Z,48.30
2018-04-18T01:44:50.066Z,56.50
2018-04-18T01:47:18.566Z,53.27
2018-04-18T01:49:48.124Z,47.00
2018-04-18T01:52:17.224Z,44.13
2018-04-18T01:54:50.638Z,44.50
2018-04-18T02:00:02.781Z,43.50
2018-04-18T02:02:31.092Z,41.73
2018-04-18T02:04:59.037Z,43.37
2018-04-18T02:07:27.050Z,47.17
2018-04-18T02:09:55.248Z,38.93
2018-04-18T02:12:23.609Z,47.10
2018-04-18T02:14:52.188Z,45.50
2018-04-18T02:17:20.187Z,49.40
2018-04-18T02:19:52.060Z,39.20
2018-04-18T02:22:20.121Z,41.07
2018-04-18T02:24:48.335Z,48.40
2018-04-18T02:27:16.239Z,47.50
2018-04-18T02:29:45.309Z,43.70
2018-04-18T02:32:14.176Z,41.30
2018-04-18T02:34:42.091Z,43.10
2018-04-18T02:37:10.083Z,48.80
2018-04-18T02:39:39.637Z,50.57
2018-04-18T02:42:08.333Z,38.20
2018-04-18T02:44:36.245Z,35.00
2018-04-18T02:47:06.292Z,42.27
2018-04-18T02:49:35.348Z,48.70
2018-04-18T02:52:03.287Z,41.53
2018-04-18T02:54:31.268Z,48.30
2018-04-18T02:56:58.940Z,46.80
2018-04-18T02:59:28.373Z,45.67
2018-04-18T03:01:57.912Z,48.80
2018-04-18T03:04:27.035Z,39.30
2018-04-18T03:06:56.575Z,41.17
2018-04-18T03:09:28.037Z,46.33
2018-04-18T03:12:01.298Z,39.87
2018-04-18T03:14:30.579Z,47.47
2018-04-18T03:17:00.354Z,42.77
2018-04-18T03:19:30.398Z,45.10
2018-04-18T03:22:02.453Z,38.53
2018-04-18T03:24:31.429Z,39.60
2018-04-18T03:27:01.973Z,42.07
2018-04-18T03:29:46.895Z,43.43
2018-04-18T03:32:16.086Z,42.47
2018-04-18T03:34:44.843Z,48.80
2018-04-18T03:37:13.672Z,44.77
2018-04-18T03:39:43.040Z,43.33
2018-04-18T03:42:13.204Z,44.90
2018-04-18T03:44:42.191Z,44.80
2018-04-18T03:47:10.228Z,48.03
2018-04-18T03:49:39.555Z,39.27
2018-04-18T03:52:08.067Z,43.67
2018-04-18T03:54:39.553Z,42.67
2018-04-18T03:57:11.229Z,45.67
2018-04-18T03:59:42.947Z,40.33
2018-04-18T04:02:13.433Z,40.43
2018-04-18T04:04:43.584Z,41.63
2018-04-18T04:07:14.305Z,45.33
2018-04-18T04:09:44.324Z,39.03
2018-04-18T04:12:12.483Z,48.00
2018-04-18T04:14:41.254Z,45.27
2018-04-18T04:17:22.132Z,47.00
2018-04-18T04:20:05.332Z,46.40
2018-04-18T04:22:46.975Z,44.00
2018-04-18T04:25:18.730Z,42.80
2018-04-18T04:27:49.482Z,43.83
2018-04-18T04:30:21.173Z,44.10
2018-04-18T04:32:52.570Z,44.27
2018-04-18T04:35:37.200Z,43.40
2018-04-18T04:38:08.228Z,37.30
2018-04-18T04:40:41.045Z,43.27
2018-04-18T04:43:11.086Z,45.10
2018-04-18T04:45:46.955Z,43.40
2018-04-18T04:48:17.470Z,41.10
2018-04-18T04:50:47.614Z,35.43
2018-04-18T04:53:24.681Z,41.97
2018-04-18T04:55:58.687Z,39.83
2018-04-18T04:58:28.452Z,43.90
2018-04-18T05:00:57.638Z,41.00
2018-04-18T05:03:27.313Z,38.13
2018-04-18T05:05:57.693Z,39.63
2018-04-18T05:08:28.836Z,39.47
2018-04-18T05:10:58.792Z,38.23
2018-04-18T05:13:27.931Z,37.03
2018-04-18T05:16:11.313Z,40.87
2018-04-18T05:18:42.437Z,39.83
2018-04-18T05:21:16.173Z,39.57
2018-04-18T05:23:46.977Z,38.07
2018-04-18T05:26:20.177Z,38.57
2018-04-18T05:28:56.203Z,36.10
2018-04-18T05:36:51.348Z,38.07
2018-04-18T05:47:47.531Z,35.87
2018-04-18T05:50:28.177Z,34.63
2018-04-18T05:53:08.034Z,35.13
2018-04-18T05:55:40.075Z,34.93
2018-04-18T06:19:40.651Z,34.57
2018-04-18T06:22:22.592Z,31.37
2018-04-18T06:25:07.374Z,31.07
2018-04-18T06:27:46.702Z,30.63
2018-04-18T06:30:21.278Z,29.87
2018-04-18T06:32:59.644Z,30.40
2018-04-18T06:35:28.310Z,28.77
2018-04-18T06:38:03.054Z,29.50
2018-04-18T06:40:34.424Z,27.67
2018-04-18T06:43:04.920Z,26.77
2018-04-18T06:45:34.278Z,28.80
2018-04-18T06:48:03.650Z,29.73
2018-04-18T06:50:40.767Z,26.20
2018-04-18T06:53:09.492Z,27.20
2018-04-18T06:55:42.398Z,27.03
2018-04-18T06:58:12.456Z,27.70
2018-04-18T07:00:42.161Z,27.00
2018-04-18T07:03:10.085Z,26.30
2018-04-18T07:05:37.728Z,27.10
2018-04-18T07:08:05.488Z,25.03
2018-04-18T07:10:33.460Z,27.83
2018-04-18T07:13:01.369Z,26.10
2018-04-18T07:15:30.141Z,26.70
2018-04-18T07:17:58.491Z,26.20
2018-04-18T07:20:26.589Z,26.33
2018-04-18T07:22:56.483Z,25.93
2018-04-18T07:25:25.263Z,25.00
2018-04-18T07:27:53.106Z,25.33
2018-04-18T07:30:20.795Z,25.07
2018-04-18T07:32:48.701Z,24.73
2018-04-18T07:35:16.881Z,25.87
2018-04-18T07:37:45.296Z,23.97
2018-04-18T07:40:13.301Z,26.83
2018-04-18T07:42:41.756Z,24.90
2018-04-18T07:45:09.540Z,24.67
2018-04-18T07:47:37.849Z,26.17
2018-04-18T07:50:06.107Z,24.40
2018-04-18T07:52:34.750Z,24.77
2018-04-18T07:55:02.657Z,25.20
2018-04-18T07:57:31.240Z,22.80
2018-04-18T07:59:58.962Z,22.87
2018-04-18T08:02:27.972Z,23.10
2018-04-18T08:04:56.458Z,17.60
2018-04-18T08:07:25.904Z,20.20
2018-04-18T08:09:53.864Z,15.37
2018-04-18T08:12:22.366Z,12.40
2018-04-18T08:14:50.211Z,15.73
2018-04-18T08:17:17.830Z,14.25
2018-04-18T08:19:46.844Z,11.10
2018-04-18T08:22:15.724Z,10.90
2018-04-18T08:24:43.964Z,8.40
2018-04-18T08:27:11.610Z,10.13
2018-04-18T08:29:40.275Z,10.70
2018-04-18T08:32:07.933Z,12.27
2018-04-18T08:34:35.714Z,11.47
2018-04-18T08:37:03.766Z,9.90
2018-04-18T08:39:32.448Z,12.13
2018-04-18T08:42:00.098Z,11.07
2018-04-18T08:44:27.884Z,9.80
2018-04-18T08:46:56.127Z,11.10
2018-04-18T08:49:24.550Z,10.40
2018-04-18T08:51:52.527Z,10.30
2018-04-18T08:54:20.499Z,9.80
2018-04-18T08:56:48.449Z,9.87
2018-04-18T08:59:16.107Z,10.60
2018-04-18T09:01:43.993Z,9.33
2018-04-18T09:04:11.713Z,12.43
2018-04-18T09:06:40.268Z,10.70
2018-04-18T09:09:08.398Z,10.03
2018-04-18T09:11:36.308Z,9.27
2018-04-18T09:14:04.112Z,8.90
2018-04-18T09:16:32.661Z,9.07
2018-04-18T09:19:01.353Z,9.40
2018-04-18T09:21:29.230Z,10.77
2018-04-18T09:23:57.046Z,9.30
2018-04-18T09:26:24.652Z,9.93
2018-04-18T09:28:52.508Z,9.80
2018-04-18T09:31:20.508Z,9.70
2018-04-18T09:33:49.092Z,9.67
2018-04-18T09:36:17.597Z,8.40
2018-04-18T09:38:45.239Z,7.55
2018-04-18T09:41:13.717Z,7.20
2018-04-18T09:43:41.853Z,7.37
2018-04-18T09:46:10.556Z,7.15
2018-04-18T09:48:39.098Z,6.93
2018-04-18T09:51:06.601Z,6.27
2018-04-18T09:53:35.030Z,6.97
2018-04-18T09:56:03.617Z,7.20
2018-04-18T09:58:31.317Z,7.80
2018-04-18T10:00:59.150Z,5.87
2018-04-18T10:03:27.473Z,7.03
2018-04-18T10:05:56.027Z,6.33
2018-04-18T10:08:23.726Z,6.83
2018-04-18T10:10:51.491Z,6.30
2018-04-18T10:13:20.168Z,5.50
2018-04-18T10:15:48.102Z,6.30
2018-04-18T10:18:15.851Z,5.83
2018-04-18T10:20:44.356Z,5.47
2018-04-18T10:23:12.226Z,5.40
2018-04-18T10:25:39.909Z,5.30
2018-04-18T10:28:07.920Z,5.00
2018-04-18T10:30:36.225Z,4.53
2018-04-18T10:33:04.377Z,4.40
2018-04-18T10:35:33.170Z,5.50
2018-04-18T10:38:01.816Z,5.40
2018-04-18T10:40:30.876Z,4.80
2018-04-18T10:42:58.660Z,4.80
2018-04-18T10:45:26.561Z,4.37
2018-04-18T10:47:54.567Z,5.60
2018-04-18T10:50:23.237Z,4.30
2018-04-18T10:52:50.975Z,5.07
2018-04-18T10:55:18.839Z,3.97
2018-04-18T10:57:47.394Z,4.13
2018-04-18T11:00:16.165Z,4.93
2018-04-18T11:02:45.333Z,4.53
2018-04-18T11:05:13.897Z,3.73
2018-04-18T11:07:41.855Z,5.10
2018-04-18T11:10:09.697Z,6.13
2018-04-18T11:12:37.730Z,4.57
2018-04-18T11:15:05.512Z,4.53
2018-04-18T11:17:34.130Z,3.90
2018-04-18T11:20:02.243Z,4.13
2018-04-18T11:22:30.135Z,4.50
2018-04-18T11:25:00.540Z,4.00
2018-04-18T11:27:28.748Z,4.47
2018-04-18T11:29:56.565Z,4.43
2018-04-18T11:32:24.680Z,4.87
2018-04-18T11:34:54.639Z,4.07
2018-04-18T11:37:22.760Z,5.10
2018-04-18T11:39:51.179Z,4.67
2018-04-18T11:42:19.087Z,4.17
2018-04-18T11:44:46.730Z,4.50
2018-04-18T11:47:16.236Z,4.47
2018-04-18T11:49:45.349Z,4.33
2018-04-18T11:52:14.671Z,3.73
2018-04-18T11:54:42.861Z,4.00
2018-04-18T11:57:11.258Z,5.17
2018-04-18T11:59:38.835Z,4.20
2018-04-18T12:02:06.642Z,4.20
2018-04-18T12:04:34.947Z,4.70
2018-04-18T12:07:03.023Z,5.20
2018-04-18T12:09:31.795Z,4.17
2018-04-18T12:11:59.579Z,3.87
2018-04-18T12:14:28.754Z,4.20
2018-04-18T12:16:56.408Z,4.97
2018-04-18T12:19:24.175Z,4.53
2018-04-18T12:21:52.557Z,5.00
2018-04-18T12:24:20.129Z,3.70
2018-04-18T12:26:47.747Z,3.43
2018-04-18T12:29:15.272Z,3.23
2018-04-18T12:31:43.794Z,3.37
2018-04-18T12:34:11.368Z,3.63
2018-04-18T12:36:39.038Z,4.07
2018-04-18T12:39:06.970Z,3.67
2018-04-18T12:50:15.269Z,3.60
2018-04-18T12:52:46.101Z,5.03
2018-04-18T12:55:15.796Z,4.47
2018-04-18T12:57:44.380Z,4.07
2018-04-18T13:00:12.301Z,3.50
2018-04-18T13:02:41.025Z,3.30
2018-04-18T13:05:09.062Z,4.17
2018-04-18T13:07:38.364Z,4.10
2018-04-18T13:10:07.804Z,3.80
2018-04-18T13:12:37.047Z,3.30
2018-04-18T13:15:04.896Z,3.70
2018-04-18T13:17:32.603Z,3.63
2018-04-18T13:20:00.117Z,3.90
2018-04-18T13:22:28.675Z,3.70
2018-04-18T13:24:57.983Z,2.63
2018-04-18T13:27:26.949Z,2.80
2018-04-18T13:29:54.561Z,3.10
2018-04-18T13:32:22.169Z,3.07
2018-04-18T13:34:49.834Z,2.70
2018-04-18T13:37:17.836Z,3.30
2018-04-18T13:39:46.134Z,3.87
2018-04-18T13:42:13.720Z,3.60
2018-04-18T13:44:41.721Z,3.20
2018-04-18T13:47:09.364Z,3.90
2018-04-18T13:49:37.199Z,3.30
2018-04-18T13:52:04.945Z,3.67
2018-04-18T13:54:33.336Z,3.53
2018-04-18T13:57:00.943Z,3.13
2018-04-18T13:59:29.623Z,4.90
2018-04-18T14:01:58.616Z,3.70
2018-04-18T14:04:26.652Z,4.00
2018-04-18T14:06:54.624Z,4.00
2018-04-18T14:09:22.113Z,4.43
2018-04-18T14:11:49.861Z,4.30
2018-04-18T14:14:17.459Z,3.80
2018-04-18T14:16:45.283Z,3.87
2018-04-18T14:19:13.110Z,4.20
2018-04-18T14:21:40.944Z,4.40
2018-04-18T14:24:08.609Z,3.90
2018-04-18T14:26:36.226Z,4.27
2018-04-18T14:29:03.903Z,4.10
2018-04-18T14:31:31.633Z,4.10
2018-04-18T14:33:59.403Z,4.57
2018-04-18T14:36:27.811Z,3.67
2018-04-18T14:38:55.791Z,3.90
2018-04-18T14:41:23.369Z,4.67
2018-04-18T14:43:51.331Z,4.57
2018-04-18T14:46:19.769Z,3.90
2018-04-18T14:48:48.128Z,3.90
2018-04-18T14:51:15.940Z,4.73
2018-04-18T14:53:43.534Z,4.30
2018-04-18T14:56:11.216Z,4.30
2018-04-18T14:58:38.787Z,4.00
2018-04-18T15:01:06.492Z,4.30
2018-04-18T15:03:34.372Z,4.50
2018-04-18T15:06:02.608Z,3.53
2018-04-18T15:08:30.682Z,3.63
2018-04-18T15:10:59.555Z,3.80
2018-04-18T15:13:27.660Z,3.87
2018-04-18T15:15:56.139Z,3.97
2018-04-18T15:18:24.748Z,4.53
2018-04-18T15:20:53.351Z,3.63
2018-04-18T15:23:21.955Z,3.40
2018-04-18T15:25:49.517Z,4.20
2018-04-18T15:28:17.337Z,3.90
2018-04-18T15:30:45.869Z,4.03
2018-04-18T15:33:13.607Z,4.03
2018-04-18T15:35:41.653Z,4.13
2018-04-18T15:38:13.421Z,4.83
2018-04-18T15:40:41.927Z,3.80
2018-04-18T15:43:09.692Z,3.60
2018-04-18T15:45:37.285Z,3.60
2018-04-18T15:48:05.698Z,4.70
2018-04-18T15:50:34.028Z,4.60
2018-04-18T15:53:01.930Z,4.97
2018-04-18T15:55:30.247Z,4.80
2018-04-18T15:57:57.907Z,4.80
2018-04-18T16:00:25.792Z,5.23
2018-04-18T16:02:53.479Z,5.73
2018-04-18T16:05:21.282Z,6.10
2018-04-18T16:07:49.949Z,6.37
2018-04-18T16:10:17.636Z,6.40
2018-04-18T16:12:46.154Z,4.43
2018-04-18T16:15:13.824Z,8.80
2018-04-18T16:17:41.675Z,6.10
2018-04-18T16:20:10.504Z,7.03
2018-04-18T16:22:38.764Z,6.67
2018-04-18T16:25:08.930Z,5.90
2018-04-18T16:27:37.001Z,7.10
2018-04-18T16:30:05.223Z,7.10
2018-04-18T16:32:33.602Z,6.23
2018-04-18T16:35:02.186Z,7.10
2018-04-18T16:37:30.876Z,7.15
2018-04-18T16:39:58.999Z,7.00
2018-04-18T16:42:28.188Z,8.60
2018-04-18T16:44:57.706Z,8.00
2018-04-18T16:47:25.948Z,8.70
2018-04-18T16:49:54.030Z,8.50
2018-04-18T16:52:22.958Z,9.35
2018-04-18T16:54:52.007Z,8.65
2018-04-18T16:57:20.534Z,8.20
2018-04-18T16:59:49.243Z,9.05
2018-04-18T17:02:17.853Z,8.80
2018-04-18T17:04:45.829Z,7.00
2018-04-18T17:07:13.581Z,7.60
2018-04-18T17:09:42.038Z,8.17
2018-04-18T17:12:10.766Z,8.10
2018-04-18T17:14:38.658Z,9.00
2018-04-18T17:17:07.012Z,9.07
2018-04-18T17:19:34.898Z,9.57
2018-04-18T17:22:03.801Z,8.43
2018-04-18T17:24:31.542Z,8.40
2018-04-18T17:27:00.061Z,8.60
2018-04-18T17:29:29.051Z,8.63
2018-04-18T17:31:57.040Z,9.20
2018-04-18T17:34:25.153Z,8.77
2018-04-18T17:36:53.526Z,9.30
2018-04-18T17:39:21.434Z,10.07
2018-04-18T17:41:49.315Z,9.00
2018-04-18T17:44:17.970Z,9.10
2018-04-18T17:46:46.151Z,8.70
2018-04-18T17:49:14.590Z,8.93
2018-04-18T17:51:45.489Z,8.87
2018-04-18T17:54:20.986Z,8.37
2018-04-18T17:56:51.586Z,11.00
2018-04-18T17:59:22.460Z,7.30
2018-04-18T18:01:51.779Z,8.10
2018-04-18T18:04:21.565Z,8.73
2018-04-18T18:06:50.022Z,9.20
2018-04-18T18:09:19.315Z,10.25
2018-04-18T18:11:47.815Z,9.50
2018-04-18T18:14:15.907Z,9.60
2018-04-18T18:22:30.264Z,10.73
2018-04-18T18:30:38.685Z,10.70
2018-04-18T18:33:07.262Z,10.47
2018-04-18T18:35:35.705Z,10.70
2018-04-18T18:38:04.544Z,11.37
2018-04-18T18:40:35.448Z,10.63
2018-04-18T18:43:03.899Z,11.07
2018-04-18T18:45:37.538Z,10.90
2018-04-18T18:48:05.863Z,10.60
2018-04-18T19:02:06.687Z,10.90
2018-04-18T19:04:34.922Z,11.93
2018-04-18T19:07:03.667Z,11.60
2018-04-18T19:09:31.265Z,11.67
2018-04-18T19:11:58.908Z,12.53
2018-04-18T19:14:28.112Z,12.37
2018-04-18T19:16:56.709Z,11.20
2018-04-18T19:19:25.403Z,12.00
2018-04-18T19:21:54.091Z,10.93
2018-04-18T19:24:22.148Z,11.40
2018-04-18T19:26:50.847Z,10.70
2018-04-18T19:29:19.615Z,10.90
2018-04-18T19:31:47.989Z,11.33
2018-04-18T19:34:17.151Z,11.80
2018-04-18T19:36:45.093Z,12.00
2018-04-18T19:39:13.563Z,12.33
2018-04-18T19:41:41.960Z,11.60
2018-04-18T19:44:10.165Z,10.97
2018-04-18T19:46:39.177Z,12.17
2018-04-18T19:49:07.968Z,11.40
2018-04-18T19:51:35.961Z,11.70
2018-04-18T19:54:04.769Z,12.37
2018-04-18T19:56:32.977Z,11.23
2018-04-18T19:59:01.210Z,12.57
2018-04-18T20:01:29.637Z,13.03
2018-04-18T20:03:58.161Z,12.50
2018-04-18T20:06:26.623Z,12.30
2018-04-18T20:08:55.585Z,11.20
2018-04-18T20:11:24.030Z,12.30
2018-04-18T20:13:54.093Z,10.80
2018-04-18T20:16:23.895Z,15.00
2018-04-18T20:18:53.400Z,12.33
2018-04-18T20:21:22.944Z,12.10
2018-04-18T20:23:51.755Z,12.50
2018-04-18T20:26:20.218Z,10.87
2018-04-18T20:28:48.709Z,12.43
2018-04-18T20:31:17.009Z,13.20
2018-04-18T20:33:45.191Z,12.30
2018-04-18T20:36:14.049Z,13.57
2018-04-18T20:38:43.069Z,12.23
2018-04-18T20:41:11.765Z,12.60
2018-04-18T20:43:40.257Z,11.20
2018-04-18T20:46:08.717Z,12.50
2018-04-18T20:48:36.971Z,12.50
2018-04-18T20:51:05.958Z,13.77
2018-04-18T20:53:35.179Z,11.60
2018-04-18T20:56:03.897Z,11.97
2018-04-18T20:58:33.484Z,14.13
2018-04-18T21:01:02.452Z,15.07
2018-04-18T21:03:31.499Z,14.80
2018-04-18T21:05:59.672Z,17.17
2018-04-18T21:08:28.638Z,16.37
2018-04-18T21:10:57.817Z,14.40
2018-04-18T21:13:26.214Z,12.33
2018-04-18T21:15:54.450Z,15.33
2018-04-18T21:18:22.944Z,15.80
2018-04-18T21:20:50.905Z,14.10
2018-04-18T21:23:19.334Z,12.83
2018-04-18T21:25:47.663Z,13.77
2018-04-18T21:28:16.168Z,13.60
2018-04-18T21:30:44.061Z,13.40
2018-04-18T21:33:12.636Z,14.47
2018-04-18T21:35:40.418Z,12.93
2018-04-18T21:38:08.190Z,14.07
2018-04-18T21:40:37.904Z,15.43
2018-04-18T21:43:05.741Z,16.10
2018-04-18T21:45:34.505Z,16.73
2018-04-18T21:48:03.120Z,14.60
2018-04-18T21:50:32.659Z,15.90
2018-04-18T21:53:05.546Z,14.30
2018-04-18T21:55:36.002Z,14.93
2018-04-18T21:58:05.627Z,14.30
2018-04-18T22:00:34.414Z,15.27
2018-04-18T22:03:03.351Z,12.50
2018-04-18T22:05:31.211Z,11.73
2018-04-18T22:07:59.701Z,13.27
2018-04-18T22:10:29.029Z,13.17
2018-04-18T22:12:58.963Z,12.23
2018-04-18T22:15:27.807Z,11.83
2018-04-18T22:17:56.590Z,11.50
2018-04-18T22:20:25.188Z,10.50
2018-04-18T22:22:52.795Z,10.07
2018-04-18T22:25:26.630Z,11.47
2018-04-18T22:27:55.856Z,11.83
2018-04-18T22:30:24.299Z,11.60
2018-04-18T22:33:13.177Z,12.20
2018-04-18T22:35:41.199Z,15.03
2018-04-18T22:38:08.831Z,13.50
2018-04-18T22:40:37.623Z,11.80
2018-04-18T22:43:05.858Z,14.57
2018-04-18T22:45:34.943Z,16.40
2018-04-18T22:48:03.660Z,12.30
2018-04-18T22:50:33.503Z,12.60
2018-04-18T22:53:02.106Z,13.33
2018-04-18T22:58:04.225Z,12.37
2018-04-18T23:00:33.754Z,12.77
2018-04-18T23:03:01.641Z,11.90
2018-04-18T23:05:29.810Z,14.47
2018-04-18T23:10:50.760Z,13.67
2018-04-18T23:13:19.155Z,12.00
2018-04-18T23:15:53.218Z,12.53
2018-04-18T23:18:21.391Z,12.40
2018-04-18T23:20:49.549Z,13.30
2018-04-18T23:23:18.411Z,15.20
2018-04-18T23:26:02.206Z,12.27
2018-04-18T23:28:29.945Z,14.20
2018-04-18T23:30:57.745Z,13.93
2018-04-18T23:33:26.909Z,12.03
2018-04-18T23:35:55.105Z,10.80
2018-04-18T23:38:22.917Z,11.23
2018-04-18T23:40:50.787Z,11.97
2018-04-18T23:43:45.041Z,11.33
2018-04-18T23:46:13.443Z,13.73
2018-04-18T23:48:42.286Z,14.60
2018-04-18T23:51:11.526Z,14.70
2018-04-18T23:53:40.674Z,12.17
2018-04-18T23:56:17.583Z,11.70
2018-04-18T23:58:47.403Z,15.60
